Woldingham, United Kingdom
Current Conditions -  °F | °C
As of 7:20 PM on Saturday 20 Dec 2014 (Local Time) from EGKB Reporting Station
Few Clouds Few Clouds  
Wind Chill: 39°   Ceiling: Unl
Heat Index: 43°   Visibility: 6mi
Dew Point: 36°   Wind: 7mph
Humidity: 76%   Direction: 270°W
Pressure: 30.42"   Gusts: NA
Location:  51.29°N, 0.03°W
Report Text: EGKB 201920Z 27006KT 230V320 9999 FEW040 06/02 Q1030
Loading
Personal Weather Stations






























Interactive Weather Map New forecast layout! Learn more

10-Day Weather Forecast

Advertisements
Track Severe Weather on mobile